sensor_id;sensor_type;location;lat;lon;timestamp;P1;durP1;ratioP1;P2;durP2;ratioP2
23171;SDS011;11754;42.664;23.594;2023-08-21T00:01:07;7.32;;;4.90;;
23171;SDS011;11754;42.664;23.594;2023-08-21T00:03:32;7.47;;;5.18;;
23171;SDS011;11754;42.664;23.594;2023-08-21T00:05:58;6.30;;;5.10;;
23171;SDS011;11754;42.664;23.594;2023-08-21T00:08:24;7.63;;;5.55;;
23171;SDS011;11754;42.664;23.594;2023-08-21T00:10:49;8.82;;;5.43;;
23171;SDS011;11754;42.664;23.594;2023-08-21T00:13:14;7.22;;;5.53;;
23171;SDS011;11754;42.664;23.594;2023-08-21T00:15:40;7.03;;;5.18;;
23171;SDS011;11754;42.664;23.594;2023-08-21T00:18:05;6.43;;;5.28;;
23171;SDS011;11754;42.664;23.594;2023-08-21T00:20:31;5.90;;;5.10;;
23171;SDS011;11754;42.664;23.594;2023-08-21T00:22:56;12.15;;;5.60;;
23171;SDS011;11754;42.664;23.594;2023-08-21T00:45:41;11.30;;;5.80;;
23171;SDS011;11754;42.664;23.594;2023-08-21T00:48:09;7.38;;;5.70;;
23171;SDS011;11754;42.664;23.594;2023-08-21T00:50:36;6.95;;;5.88;;
23171;SDS011;11754;42.664;23.594;2023-08-21T00:53:02;7.70;;;5.80;;
23171;SDS011;11754;42.664;23.594;2023-08-21T00:55:28;7.60;;;5.50;;
23171;SDS011;11754;42.664;23.594;2023-08-21T00:57:54;9.02;;;6.10;;
23171;SDS011;11754;42.664;23.594;2023-08-21T01:00:21;10.43;;;5.78;;
23171;SDS011;11754;42.664;23.594;2023-08-21T01:02:47;8.10;;;5.70;;
23171;SDS011;11754;42.664;23.594;2023-08-21T01:05:12;10.45;;;5.57;;
23171;SDS011;11754;42.664;23.594;2023-08-21T01:07:56;6.20;;;5.50;;
23171;SDS011;11754;42.664;23.594;2023-08-21T01:10:35;8.60;;;5.78;;
23171;SDS011;11754;42.664;23.594;2023-08-21T01:13:09;11.35;;;6.00;;
23171;SDS011;11754;42.664;23.594;2023-08-21T01:15:44;8.77;;;5.75;;
23171;SDS011;11754;42.664;23.594;2023-08-21T01:18:11;8.85;;;6.05;;
23171;SDS011;11754;42.664;23.594;2023-08-21T01:20:37;9.93;;;5.80;;
23171;SDS011;11754;42.664;23.594;2023-08-21T01:23:03;6.47;;;5.78;;
23171;SDS011;11754;42.664;23.594;2023-08-21T01:25:32;9.13;;;6.30;;
23171;SDS011;11754;42.664;23.594;2023-08-21T01:27:58;6.78;;;6.00;;
23171;SDS011;11754;42.664;23.594;2023-08-21T01:30:23;11.43;;;6.60;;
23171;SDS011;11754;42.664;23.594;2023-08-21T01:33:06;8.95;;;6.60;;
23171;SDS011;11754;42.664;23.594;2023-08-21T01:35:36;9.23;;;6.13;;
23171;SDS011;11754;42.664;23.594;2023-08-21T01:38:02;8.55;;;6.43;;
23171;SDS011;11754;42.664;23.594;2023-08-21T01:40:28;9.82;;;6.18;;
23171;SDS011;11754;42.664;23.594;2023-08-21T01:42:54;8.35;;;6.47;;
23171;SDS011;11754;42.664;23.594;2023-08-21T01:45:19;10.15;;;6.63;;
23171;SDS011;11754;42.664;23.594;2023-08-21T01:47:45;10.57;;;6.38;;
23171;SDS011;11754;42.664;23.594;2023-08-21T01:50:11;8.68;;;6.35;;
23171;SDS011;11754;42.664;23.594;2023-08-21T01:52:36;9.68;;;6.50;;
23171;SDS011;11754;42.664;23.594;2023-08-21T01:55:01;8.65;;;6.10;;
23171;SDS011;11754;42.664;23.594;2023-08-21T01:57:28;6.45;;;5.85;;
23171;SDS011;11754;42.664;23.594;2023-08-21T01:59:54;8.95;;;6.20;;
23171;SDS011;11754;42.664;23.594;2023-08-21T02:02:19;11.02;;;6.00;;
23171;SDS011;11754;42.664;23.594;2023-08-21T02:04:45;8.15;;;5.75;;
23171;SDS011;11754;42.664;23.594;2023-08-21T02:07:10;9.77;;;6.00;;
23171;SDS011;11754;42.664;23.594;2023-08-21T02:09:35;8.32;;;6.28;;
23171;SDS011;11754;42.664;23.594;2023-08-21T02:12:01;9.50;;;6.28;;
23171;SDS011;11754;42.664;23.594;2023-08-21T02:14:26;8.05;;;6.13;;
23171;SDS011;11754;42.664;23.594;2023-08-21T02:16:52;8.35;;;5.70;;
23171;SDS011;11754;42.664;23.594;2023-08-21T02:19:17;8.77;;;6.15;;
23171;SDS011;11754;42.664;23.594;2023-08-21T02:21:42;7.75;;;5.90;;
23171;SDS011;11754;42.664;23.594;2023-08-21T02:24:08;10.63;;;6.00;;
23171;SDS011;11754;42.664;23.594;2023-08-21T02:26:33;8.77;;;6.18;;
23171;SDS011;11754;42.664;23.594;2023-08-21T02:28:58;8.45;;;6.07;;
23171;SDS011;11754;42.664;23.594;2023-08-21T02:31:24;13.80;;;6.13;;
23171;SDS011;11754;42.664;23.594;2023-08-21T02:33:49;9.60;;;6.07;;
23171;SDS011;11754;42.664;23.594;2023-08-21T02:36:15;8.07;;;5.90;;
23171;SDS011;11754;42.664;23.594;2023-08-21T02:38:41;8.90;;;5.90;;
23171;SDS011;11754;42.664;23.594;2023-08-21T02:41:06;11.82;;;6.30;;
23171;SDS011;11754;42.664;23.594;2023-08-21T02:43:32;11.73;;;6.25;;
23171;SDS011;11754;42.664;23.594;2023-08-21T02:45:57;10.27;;;5.97;;
23171;SDS011;11754;42.664;23.594;2023-08-21T02:48:23;6.25;;;5.65;;
23171;SDS011;11754;42.664;23.594;2023-08-21T02:50:48;10.90;;;5.70;;
23171;SDS011;11754;42.664;23.594;2023-08-21T02:53:13;12.00;;;6.30;;
23171;SDS011;11754;42.664;23.594;2023-08-21T02:55:39;12.52;;;6.60;;
23171;SDS011;11754;42.664;23.594;2023-08-21T02:58:04;10.48;;;6.47;;
23171;SDS011;11754;42.664;23.594;2023-08-21T03:03:51;10.45;;;6.07;;
23171;SDS011;11754;42.664;23.594;2023-08-21T03:06:17;11.18;;;6.32;;
23171;SDS011;11754;42.664;23.594;2023-08-21T03:08:42;9.15;;;6.70;;
23171;SDS011;11754;42.664;23.594;2023-08-21T03:11:09;15.80;;;6.97;;
23171;SDS011;11754;42.664;23.594;2023-08-21T03:13:34;11.05;;;6.28;;
23171;SDS011;11754;42.664;23.594;2023-08-21T03:16:00;9.60;;;6.70;;
23171;SDS011;11754;42.664;23.594;2023-08-21T03:18:29;8.85;;;6.40;;
23171;SDS011;11754;42.664;23.594;2023-08-21T03:20:56;9.13;;;6.70;;
23171;SDS011;11754;42.664;23.594;2023-08-21T03:23:21;9.80;;;6.60;;
23171;SDS011;11754;42.664;23.594;2023-08-21T03:25:47;8.90;;;6.57;;
23171;SDS011;11754;42.664;23.594;2023-08-21T03:28:12;9.88;;;6.75;;
23171;SDS011;11754;42.664;23.594;2023-08-21T03:30:39;8.32;;;5.88;;
23171;SDS011;11754;42.664;23.594;2023-08-21T03:33:04;7.88;;;6.78;;
23171;SDS011;11754;42.664;23.594;2023-08-21T03:35:30;10.55;;;6.78;;
23171;SDS011;11754;42.664;23.594;2023-08-21T03:37:56;10.23;;;6.15;;
23171;SDS011;11754;42.664;23.594;2023-08-21T03:40:21;13.60;;;6.90;;
23171;SDS011;11754;42.664;23.594;2023-08-21T03:42:46;7.13;;;6.25;;
23171;SDS011;11754;42.664;23.594;2023-08-21T03:45:12;11.80;;;6.57;;
23171;SDS011;11754;42.664;23.594;2023-08-21T03:47:37;12.13;;;7.10;;
23171;SDS011;11754;42.664;23.594;2023-08-21T03:50:03;12.63;;;6.90;;
23171;SDS011;11754;42.664;23.594;2023-08-21T03:52:28;11.77;;;6.90;;
23171;SDS011;11754;42.664;23.594;2023-08-21T03:54:53;14.95;;;6.55;;
23171;SDS011;11754;42.664;23.594;2023-08-21T03:57:19;13.98;;;6.82;;
23171;SDS011;11754;42.664;23.594;2023-08-21T03:59:44;9.23;;;6.80;;
23171;SDS011;11754;42.664;23.594;2023-08-21T04:02:09;12.57;;;6.90;;
23171;SDS011;11754;42.664;23.594;2023-08-21T04:04:35;8.85;;;7.05;;
23171;SDS011;11754;42.664;23.594;2023-08-21T04:07:01;12.43;;;7.00;;
23171;SDS011;11754;42.664;23.594;2023-08-21T04:09:26;13.27;;;7.18;;
23171;SDS011;11754;42.664;23.594;2023-08-21T04:11:51;16.90;;;7.85;;
23171;SDS011;11754;42.664;23.594;2023-08-21T04:14:17;11.13;;;8.18;;
23171;SDS011;11754;42.664;23.594;2023-08-21T04:16:42;13.20;;;7.97;;
23171;SDS011;11754;42.664;23.594;2023-08-21T04:19:07;12.75;;;8.52;;
23171;SDS011;11754;42.664;23.594;2023-08-21T04:21:33;13.82;;;7.75;;
23171;SDS011;11754;42.664;23.594;2023-08-21T04:23:59;16.50;;;7.07;;
23171;SDS011;11754;42.664;23.594;2023-08-21T04:26:24;8.85;;;7.22;;
23171;SDS011;11754;42.664;23.594;2023-08-21T04:28:50;11.80;;;6.82;;
23171;SDS011;11754;42.664;23.594;2023-08-21T04:31:15;9.82;;;7.07;;
23171;SDS011;11754;42.664;23.594;2023-08-21T04:33:40;12.70;;;7.13;;
23171;SDS011;11754;42.664;23.594;2023-08-21T04:36:06;12.88;;;7.95;;
23171;SDS011;11754;42.664;23.594;2023-08-21T04:45:21;15.27;;;7.95;;
23171;SDS011;11754;42.664;23.594;2023-08-21T04:47:46;21.38;;;9.27;;
23171;SDS011;11754;42.664;23.594;2023-08-21T04:50:12;17.75;;;7.90;;
23171;SDS011;11754;42.664;23.594;2023-08-21T04:52:37;19.25;;;8.18;;
23171;SDS011;11754;42.664;23.594;2023-08-21T04:58:24;21.40;;;8.52;;
23171;SDS011;11754;42.664;23.594;2023-08-21T05:00:49;16.35;;;8.32;;
23171;SDS011;11754;42.664;23.594;2023-08-21T05:03:15;15.73;;;8.57;;
23171;SDS011;11754;42.664;23.594;2023-08-21T05:05:40;9.85;;;7.20;;
23171;SDS011;11754;42.664;23.594;2023-08-21T05:08:05;10.68;;;7.38;;
23171;SDS011;11754;42.664;23.594;2023-08-21T05:10:31;11.48;;;7.43;;
23171;SDS011;11754;42.664;23.594;2023-08-21T05:12:56;13.23;;;7.57;;
23171;SDS011;11754;42.664;23.594;2023-08-21T05:15:22;12.27;;;8.00;;
23171;SDS011;11754;42.664;23.594;2023-08-21T05:17:48;12.25;;;7.30;;
23171;SDS011;11754;42.664;23.594;2023-08-21T05:20:13;10.30;;;7.35;;
23171;SDS011;11754;42.664;23.594;2023-08-21T05:22:39;9.38;;;7.15;;
23171;SDS011;11754;42.664;23.594;2023-08-21T05:25:05;7.95;;;7.15;;
23171;SDS011;11754;42.664;23.594;2023-08-21T05:27:31;12.13;;;7.28;;
23171;SDS011;11754;42.664;23.594;2023-08-21T05:29:57;14.15;;;7.55;;
23171;SDS011;11754;42.664;23.594;2023-08-21T05:32:22;10.55;;;7.15;;
23171;SDS011;11754;42.664;23.594;2023-08-21T05:34:47;14.27;;;7.28;;
23171;SDS011;11754;42.664;23.594;2023-08-21T05:37:13;15.32;;;8.20;;
23171;SDS011;11754;42.664;23.594;2023-08-21T05:39:38;13.70;;;8.10;;
23171;SDS011;11754;42.664;23.594;2023-08-21T05:42:04;12.40;;;7.10;;
23171;SDS011;11754;42.664;23.594;2023-08-21T05:44:29;8.77;;;7.13;;
23171;SDS011;11754;42.664;23.594;2023-08-21T05:46:55;12.73;;;7.85;;
23171;SDS011;11754;42.664;23.594;2023-08-21T05:49:20;15.98;;;7.75;;
23171;SDS011;11754;42.664;23.594;2023-08-21T05:51:45;14.65;;;8.15;;
23171;SDS011;11754;42.664;23.594;2023-08-21T05:54:11;14.70;;;9.20;;
23171;SDS011;11754;42.664;23.594;2023-08-21T05:56:36;15.93;;;7.80;;
23171;SDS011;11754;42.664;23.594;2023-08-21T05:59:01;11.52;;;7.70;;
23171;SDS011;11754;42.664;23.594;2023-08-21T06:01:27;14.10;;;7.72;;
23171;SDS011;11754;42.664;23.594;2023-08-21T06:03:52;19.23;;;8.20;;
23171;SDS011;11754;42.664;23.594;2023-08-21T06:06:18;21.85;;;7.97;;
23171;SDS011;11754;42.664;23.594;2023-08-21T06:08:43;14.98;;;7.95;;
23171;SDS011;11754;42.664;23.594;2023-08-21T06:11:09;25.50;;;8.32;;
23171;SDS011;11754;42.664;23.594;2023-08-21T06:13:34;17.15;;;7.43;;
23171;SDS011;11754;42.664;23.594;2023-08-21T06:16:00;12.60;;;6.72;;
23171;SDS011;11754;42.664;23.594;2023-08-21T06:18:25;14.13;;;7.20;;
23171;SDS011;11754;42.664;23.594;2023-08-21T06:20:50;11.73;;;6.80;;
23171;SDS011;11754;42.664;23.594;2023-08-21T06:23:19;10.02;;;6.78;;
23171;SDS011;11754;42.664;23.594;2023-08-21T06:29:07;12.85;;;6.63;;
23171;SDS011;11754;42.664;23.594;2023-08-21T06:31:32;11.38;;;6.28;;
23171;SDS011;11754;42.664;23.594;2023-08-21T06:33:58;9.82;;;5.88;;
23171;SDS011;11754;42.664;23.594;2023-08-21T06:36:23;11.65;;;6.25;;
23171;SDS011;11754;42.664;23.594;2023-08-21T06:38:49;12.15;;;6.15;;
23171;SDS011;11754;42.664;23.594;2023-08-21T06:41:14;16.55;;;6.72;;
23171;SDS011;11754;42.664;23.594;2023-08-21T06:43:39;9.82;;;6.22;;
23171;SDS011;11754;42.664;23.594;2023-08-21T06:46:06;13.57;;;6.53;;
23171;SDS011;11754;42.664;23.594;2023-08-21T06:48:31;17.00;;;5.95;;
23171;SDS011;11754;42.664;23.594;2023-08-21T06:50:57;13.73;;;6.07;;
23171;SDS011;11754;42.664;23.594;2023-08-21T06:53:22;13.50;;;6.05;;
23171;SDS011;11754;42.664;23.594;2023-08-21T06:55:47;11.55;;;5.90;;
23171;SDS011;11754;42.664;23.594;2023-08-21T06:58:13;10.63;;;5.40;;
23171;SDS011;11754;42.664;23.594;2023-08-21T07:00:38;15.55;;;5.68;;
23171;SDS011;11754;42.664;23.594;2023-08-21T07:03:04;11.98;;;5.53;;
23171;SDS011;11754;42.664;23.594;2023-08-21T07:05:32;9.40;;;5.78;;
23171;SDS011;11754;42.664;23.594;2023-08-21T07:07:58;15.05;;;6.68;;
23171;SDS011;11754;42.664;23.594;2023-08-21T07:10:24;7.05;;;5.32;;
23171;SDS011;11754;42.664;23.594;2023-08-21T07:12:49;13.18;;;5.80;;
23171;SDS011;11754;42.664;23.594;2023-08-21T07:15:14;7.55;;;5.10;;
23171;SDS011;11754;42.664;23.594;2023-08-21T07:17:40;10.43;;;5.65;;
23171;SDS011;11754;42.664;23.594;2023-08-21T07:20:06;7.53;;;5.15;;
23171;SDS011;11754;42.664;23.594;2023-08-21T07:22:32;10.93;;;6.05;;
23171;SDS011;11754;42.664;23.594;2023-08-21T07:24:58;9.88;;;5.07;;
23171;SDS011;11754;42.664;23.594;2023-08-21T07:27:25;10.25;;;4.88;;
23171;SDS011;11754;42.664;23.594;2023-08-21T07:29:50;10.88;;;4.82;;
23171;SDS011;11754;42.664;23.594;2023-08-21T07:32:16;7.72;;;4.70;;
23171;SDS011;11754;42.664;23.594;2023-08-21T07:41:28;7.43;;;4.55;;
23171;SDS011;11754;42.664;23.594;2023-08-21T07:43:54;8.80;;;5.00;;
23171;SDS011;11754;42.664;23.594;2023-08-21T07:46:19;13.40;;;4.93;;
23171;SDS011;11754;42.664;23.594;2023-08-21T07:48:45;9.27;;;4.82;;
23171;SDS011;11754;42.664;23.594;2023-08-21T07:51:10;6.20;;;4.70;;
23171;SDS011;11754;42.664;23.594;2023-08-21T07:53:36;15.40;;;4.82;;
23171;SDS011;11754;42.664;23.594;2023-08-21T07:56:02;10.65;;;4.60;;
23171;SDS011;11754;42.664;23.594;2023-08-21T07:58:31;9.85;;;4.88;;
23171;SDS011;11754;42.664;23.594;2023-08-21T08:00:57;12.15;;;4.45;;
23171;SDS011;11754;42.664;23.594;2023-08-21T08:03:22;8.60;;;4.15;;
23171;SDS011;11754;42.664;23.594;2023-08-21T08:05:48;10.15;;;4.53;;
23171;SDS011;11754;42.664;23.594;2023-08-21T08:08:13;14.43;;;4.50;;
23171;SDS011;11754;42.664;23.594;2023-08-21T08:10:39;12.35;;;4.50;;
23171;SDS011;11754;42.664;23.594;2023-08-21T08:13:05;11.68;;;4.20;;
23171;SDS011;11754;42.664;23.594;2023-08-21T08:15:32;8.68;;;4.38;;
23171;SDS011;11754;42.664;23.594;2023-08-21T08:17:59;11.23;;;4.50;;
23171;SDS011;11754;42.664;23.594;2023-08-21T08:33:51;6.93;;;3.85;;
23171;SDS011;11754;42.664;23.594;2023-08-21T08:36:17;5.65;;;3.42;;
23171;SDS011;11754;42.664;23.594;2023-08-21T08:38:42;7.90;;;4.03;;
23171;SDS011;11754;42.664;23.594;2023-08-21T08:41:12;6.53;;;3.90;;
23171;SDS011;11754;42.664;23.594;2023-08-21T08:43:47;8.70;;;3.60;;
23171;SDS011;11754;42.664;23.594;2023-08-21T08:46:13;5.75;;;3.47;;
23171;SDS011;11754;42.664;23.594;2023-08-21T08:48:39;10.60;;;3.83;;
23171;SDS011;11754;42.664;23.594;2023-08-21T08:51:05;8.32;;;3.40;;
23171;SDS011;11754;42.664;23.594;2023-08-21T08:53:30;6.80;;;3.75;;
23171;SDS011;11754;42.664;23.594;2023-08-21T08:55:56;9.57;;;3.90;;
23171;SDS011;11754;42.664;23.594;2023-08-21T08:58:22;8.60;;;3.90;;
23171;SDS011;11754;42.664;23.594;2023-08-21T09:00:48;10.75;;;3.97;;
23171;SDS011;11754;42.664;23.594;2023-08-21T09:03:13;8.90;;;4.07;;
23171;SDS011;11754;42.664;23.594;2023-08-21T09:15:55;6.38;;;2.90;;
23171;SDS011;11754;42.664;23.594;2023-08-21T09:18:20;6.60;;;3.30;;
23171;SDS011;11754;42.664;23.594;2023-08-21T09:20:46;9.75;;;3.17;;
23171;SDS011;11754;42.664;23.594;2023-08-21T09:23:16;8.15;;;3.00;;
23171;SDS011;11754;42.664;23.594;2023-08-21T09:25:46;5.22;;;2.65;;
23171;SDS011;11754;42.664;23.594;2023-08-21T09:28:12;9.70;;;2.60;;
23171;SDS011;11754;42.664;23.594;2023-08-21T09:30:45;7.82;;;3.10;;
23171;SDS011;11754;42.664;23.594;2023-08-21T09:33:19;7.95;;;2.90;;
23171;SDS011;11754;42.664;23.594;2023-08-21T09:35:46;7.30;;;2.70;;
23171;SDS011;11754;42.664;23.594;2023-08-21T09:38:21;5.50;;;2.50;;
23171;SDS011;11754;42.664;23.594;2023-08-21T09:40:51;4.57;;;2.40;;
23171;SDS011;11754;42.664;23.594;2023-08-21T09:43:18;6.35;;;2.40;;
23171;SDS011;11754;42.664;23.594;2023-08-21T09:45:46;8.20;;;2.33;;
23171;SDS011;11754;42.664;23.594;2023-08-21T09:48:15;8.35;;;2.50;;
23171;SDS011;11754;42.664;23.594;2023-08-21T09:50:41;6.07;;;1.98;;
23171;SDS011;11754;42.664;23.594;2023-08-21T09:53:07;9.88;;;2.25;;
23171;SDS011;11754;42.664;23.594;2023-08-21T10:19:05;7.15;;;1.60;;
23171;SDS011;11754;42.664;23.594;2023-08-21T10:21:34;5.05;;;1.40;;
23171;SDS011;11754;42.664;23.594;2023-08-21T10:24:01;8.10;;;1.55;;
23171;SDS011;11754;42.664;23.594;2023-08-21T10:26:26;8.93;;;1.40;;
23171;SDS011;11754;42.664;23.594;2023-08-21T10:29:01;3.63;;;1.23;;
23171;SDS011;11754;42.664;23.594;2023-08-21T10:31:31;6.90;;;1.42;;
23171;SDS011;11754;42.664;23.594;2023-08-21T10:34:01;4.72;;;1.30;;
23171;SDS011;11754;42.664;23.594;2023-08-21T10:39:15;4.65;;;1.17;;
23171;SDS011;11754;42.664;23.594;2023-08-21T10:44:34;3.95;;;1.10;;
23171;SDS011;11754;42.664;23.594;2023-08-21T10:49:52;5.97;;;0.90;;
23171;SDS011;11754;42.664;23.594;2023-08-21T10:58:11;4.65;;;1.15;;
23171;SDS011;11754;42.664;23.594;2023-08-21T11:00:39;5.22;;;0.95;;
23171;SDS011;11754;42.664;23.594;2023-08-21T11:03:04;5.10;;;0.90;;
23171;SDS011;11754;42.664;23.594;2023-08-21T11:05:30;4.83;;;0.83;;
23171;SDS011;11754;42.664;23.594;2023-08-21T11:07:55;3.20;;;0.80;;
23171;SDS011;11754;42.664;23.594;2023-08-21T11:10:23;3.67;;;0.90;;
23171;SDS011;11754;42.664;23.594;2023-08-21T11:12:50;6.20;;;0.90;;
23171;SDS011;11754;42.664;23.594;2023-08-21T11:15:22;5.28;;;0.80;;
23171;SDS011;11754;42.664;23.594;2023-08-21T11:27:09;3.88;;;0.90;;
23171;SDS011;11754;42.664;23.594;2023-08-21T11:29:41;9.48;;;0.98;;
23171;SDS011;11754;42.664;23.594;2023-08-21T11:34:39;2.63;;;0.80;;
23171;SDS011;11754;42.664;23.594;2023-08-21T11:37:06;5.72;;;0.88;;
23171;SDS011;11754;42.664;23.594;2023-08-21T11:39:38;4.72;;;0.95;;
23171;SDS011;11754;42.664;23.594;2023-08-21T11:42:08;4.60;;;0.90;;
23171;SDS011;11754;42.664;23.594;2023-08-21T11:47:04;5.60;;;1.00;;
23171;SDS011;11754;42.664;23.594;2023-08-21T11:49:30;4.25;;;0.90;;
23171;SDS011;11754;42.664;23.594;2023-08-21T11:51:55;3.15;;;0.93;;
23171;SDS011;11754;42.664;23.594;2023-08-21T11:54:21;4.07;;;1.10;;
23171;SDS011;11754;42.664;23.594;2023-08-21T11:56:46;3.50;;;0.90;;
23171;SDS011;11754;42.664;23.594;2023-08-21T11:59:20;4.18;;;0.88;;
23171;SDS011;11754;42.664;23.594;2023-08-21T12:01:49;2.28;;;0.90;;
23171;SDS011;11754;42.664;23.594;2023-08-21T12:04:16;4.05;;;0.90;;
23171;SDS011;11754;42.664;23.594;2023-08-21T12:06:45;5.68;;;1.00;;
23171;SDS011;11754;42.664;23.594;2023-08-21T12:09:10;4.93;;;1.08;;
23171;SDS011;11754;42.664;23.594;2023-08-21T12:11:36;5.20;;;1.00;;
23171;SDS011;11754;42.664;23.594;2023-08-21T12:14:03;6.45;;;1.02;;
23171;SDS011;11754;42.664;23.594;2023-08-21T12:16:29;3.70;;;0.88;;
23171;SDS011;11754;42.664;23.594;2023-08-21T12:18:54;4.33;;;0.80;;
23171;SDS011;11754;42.664;23.594;2023-08-21T12:31:39;4.63;;;1.00;;
23171;SDS011;11754;42.664;23.594;2023-08-21T12:34:05;3.83;;;0.88;;
23171;SDS011;11754;42.664;23.594;2023-08-21T12:36:30;3.40;;;1.08;;
23171;SDS011;11754;42.664;23.594;2023-08-21T12:38:56;3.70;;;0.93;;
23171;SDS011;11754;42.664;23.594;2023-08-21T12:41:21;3.60;;;0.90;;
23171;SDS011;11754;42.664;23.594;2023-08-21T12:43:46;3.23;;;0.80;;
23171;SDS011;11754;42.664;23.594;2023-08-21T12:46:12;3.85;;;0.82;;
23171;SDS011;11754;42.664;23.594;2023-08-21T12:48:38;3.15;;;0.75;;
23171;SDS011;11754;42.664;23.594;2023-08-21T12:51:03;4.73;;;0.90;;
23171;SDS011;11754;42.664;23.594;2023-08-21T12:53:30;2.92;;;0.90;;
23171;SDS011;11754;42.664;23.594;2023-08-21T12:55:55;3.80;;;1.00;;
23171;SDS011;11754;42.664;23.594;2023-08-21T12:58:20;8.63;;;1.00;;
23171;SDS011;11754;42.664;23.594;2023-08-21T13:00:46;3.53;;;1.00;;
23171;SDS011;11754;42.664;23.594;2023-08-21T13:03:11;4.55;;;0.88;;
23171;SDS011;11754;42.664;23.594;2023-08-21T13:08:58;6.43;;;1.08;;
23171;SDS011;11754;42.664;23.594;2023-08-21T13:11:24;4.80;;;1.00;;
23171;SDS011;11754;42.664;23.594;2023-08-21T13:13:49;3.97;;;0.98;;
23171;SDS011;11754;42.664;23.594;2023-08-21T13:16:15;5.63;;;0.80;;
23171;SDS011;11754;42.664;23.594;2023-08-21T13:18:40;2.65;;;0.90;;
23171;SDS011;11754;42.664;23.594;2023-08-21T13:21:06;3.50;;;0.90;;
23171;SDS011;11754;42.664;23.594;2023-08-21T13:23:31;2.00;;;0.90;;
23171;SDS011;11754;42.664;23.594;2023-08-21T13:29:20;8.88;;;1.08;;
23171;SDS011;11754;42.664;23.594;2023-08-21T13:31:46;3.53;;;1.00;;
23171;SDS011;11754;42.664;23.594;2023-08-21T13:34:11;2.78;;;0.85;;
23171;SDS011;11754;42.664;23.594;2023-08-21T13:36:37;4.13;;;1.07;;
23171;SDS011;11754;42.664;23.594;2023-08-21T13:39:02;3.20;;;1.00;;
23171;SDS011;11754;42.664;23.594;2023-08-21T13:41:30;6.20;;;1.00;;
23171;SDS011;11754;42.664;23.594;2023-08-21T13:43:56;3.88;;;0.93;;
23171;SDS011;11754;42.664;23.594;2023-08-21T13:46:22;9.00;;;1.10;;
23171;SDS011;11754;42.664;23.594;2023-08-21T13:48:47;7.07;;;1.00;;
23171;SDS011;11754;42.664;23.594;2023-08-21T13:51:13;3.55;;;1.10;;
23171;SDS011;11754;42.664;23.594;2023-08-21T13:53:38;3.80;;;0.97;;
23171;SDS011;11754;42.664;23.594;2023-08-21T13:56:03;7.20;;;1.13;;
23171;SDS011;11754;42.664;23.594;2023-08-21T13:58:29;6.57;;;1.00;;
23171;SDS011;11754;42.664;23.594;2023-08-21T14:00:54;5.70;;;0.97;;
23171;SDS011;11754;42.664;23.594;2023-08-21T14:03:22;3.00;;;0.93;;
23171;SDS011;11754;42.664;23.594;2023-08-21T14:05:47;7.07;;;1.13;;
23171;SDS011;11754;42.664;23.594;2023-08-21T14:08:12;2.50;;;0.90;;
23171;SDS011;11754;42.664;23.594;2023-08-21T14:10:37;4.63;;;1.00;;
23171;SDS011;11754;42.664;23.594;2023-08-21T14:13:03;5.90;;;1.00;;
23171;SDS011;11754;42.664;23.594;2023-08-21T14:15:29;4.10;;;1.10;;
23171;SDS011;11754;42.664;23.594;2023-08-21T14:17:54;5.18;;;1.30;;
23171;SDS011;11754;42.664;23.594;2023-08-21T14:20:20;4.88;;;1.30;;
23171;SDS011;11754;42.664;23.594;2023-08-21T14:22:45;5.90;;;1.40;;
23171;SDS011;11754;42.664;23.594;2023-08-21T14:25:10;4.80;;;1.40;;
23171;SDS011;11754;42.664;23.594;2023-08-21T14:27:36;4.33;;;1.27;;
23171;SDS011;11754;42.664;23.594;2023-08-21T14:30:01;3.17;;;1.50;;
23171;SDS011;11754;42.664;23.594;2023-08-21T14:32:28;5.00;;;1.40;;
23171;SDS011;11754;42.664;23.594;2023-08-21T14:34:53;10.15;;;2.05;;
23171;SDS011;11754;42.664;23.594;2023-08-21T14:37:20;4.28;;;1.63;;
23171;SDS011;11754;42.664;23.594;2023-08-21T14:39:46;4.05;;;1.70;;
23171;SDS011;11754;42.664;23.594;2023-08-21T14:42:11;7.82;;;2.40;;
23171;SDS011;11754;42.664;23.594;2023-08-21T14:44:38;9.60;;;2.63;;
23171;SDS011;11754;42.664;23.594;2023-08-21T14:47:03;4.55;;;2.20;;
23171;SDS011;11754;42.664;23.594;2023-08-21T14:49:28;8.43;;;2.40;;
23171;SDS011;11754;42.664;23.594;2023-08-21T14:51:54;5.28;;;2.55;;
23171;SDS011;11754;42.664;23.594;2023-08-21T14:54:20;7.50;;;2.60;;
23171;SDS011;11754;42.664;23.594;2023-08-21T14:56:45;5.80;;;2.60;;
23171;SDS011;11754;42.664;23.594;2023-08-21T14:59:11;7.00;;;2.72;;
23171;SDS011;11754;42.664;23.594;2023-08-21T15:01:37;8.05;;;2.70;;
23171;SDS011;11754;42.664;23.594;2023-08-21T15:04:04;5.20;;;2.55;;
23171;SDS011;11754;42.664;23.594;2023-08-21T15:06:29;5.80;;;2.72;;
23171;SDS011;11754;42.664;23.594;2023-08-21T15:08:55;3.97;;;2.40;;
23171;SDS011;11754;42.664;23.594;2023-08-21T15:11:20;6.97;;;2.60;;
23171;SDS011;11754;42.664;23.594;2023-08-21T15:13:45;4.82;;;2.60;;
23171;SDS011;11754;42.664;23.594;2023-08-21T15:16:10;7.20;;;2.60;;
23171;SDS011;11754;42.664;23.594;2023-08-21T15:18:36;6.22;;;2.60;;
23171;SDS011;11754;42.664;23.594;2023-08-21T15:21:01;9.77;;;2.70;;
23171;SDS011;11754;42.664;23.594;2023-08-21T15:23:27;6.40;;;2.50;;
23171;SDS011;11754;42.664;23.594;2023-08-21T15:25:53;5.60;;;2.78;;
23171;SDS011;11754;42.664;23.594;2023-08-21T15:28:18;9.85;;;2.90;;
23171;SDS011;11754;42.664;23.594;2023-08-21T15:30:43;5.60;;;2.80;;
23171;SDS011;11754;42.664;23.594;2023-08-21T15:40:05;6.95;;;3.00;;
23171;SDS011;11754;42.664;23.594;2023-08-21T15:42:31;5.45;;;2.60;;
23171;SDS011;11754;42.664;23.594;2023-08-21T15:44:57;7.55;;;2.63;;
23171;SDS011;11754;42.664;23.594;2023-08-21T15:47:22;5.40;;;2.65;;
23171;SDS011;11754;42.664;23.594;2023-08-21T15:59:52;6.70;;;2.70;;
23171;SDS011;11754;42.664;23.594;2023-08-21T16:02:17;7.72;;;2.90;;
23171;SDS011;11754;42.664;23.594;2023-08-21T16:04:43;6.15;;;2.90;;
23171;SDS011;11754;42.664;23.594;2023-08-21T16:07:09;10.68;;;3.05;;
23171;SDS011;11754;42.664;23.594;2023-08-21T16:09:34;5.32;;;2.67;;
23171;SDS011;11754;42.664;23.594;2023-08-21T16:12:00;4.78;;;2.70;;
23171;SDS011;11754;42.664;23.594;2023-08-21T16:14:27;5.88;;;2.85;;
23171;SDS011;11754;42.664;23.594;2023-08-21T16:16:53;5.10;;;2.63;;
23171;SDS011;11754;42.664;23.594;2023-08-21T16:19:19;6.22;;;2.92;;
23171;SDS011;11754;42.664;23.594;2023-08-21T16:28:28;10.25;;;3.30;;
23171;SDS011;11754;42.664;23.594;2023-08-21T16:30:53;8.23;;;3.30;;
23171;SDS011;11754;42.664;23.594;2023-08-21T16:33:19;8.25;;;3.17;;
23171;SDS011;11754;42.664;23.594;2023-08-21T16:35:44;9.00;;;3.38;;
23171;SDS011;11754;42.664;23.594;2023-08-21T16:38:09;7.45;;;3.50;;
23171;SDS011;11754;42.664;23.594;2023-08-21T16:40:35;9.27;;;3.60;;
23171;SDS011;11754;42.664;23.594;2023-08-21T16:43:00;11.23;;;3.27;;
23171;SDS011;11754;42.664;23.594;2023-08-21T16:45:25;8.13;;;3.53;;
23171;SDS011;11754;42.664;23.594;2023-08-21T16:47:51;12.90;;;4.20;;
23171;SDS011;11754;42.664;23.594;2023-08-21T16:50:17;10.90;;;4.10;;
23171;SDS011;11754;42.664;23.594;2023-08-21T16:52:43;11.75;;;3.72;;
23171;SDS011;11754;42.664;23.594;2023-08-21T16:55:08;7.88;;;3.70;;
23171;SDS011;11754;42.664;23.594;2023-08-21T16:57:34;9.23;;;4.15;;
23171;SDS011;11754;42.664;23.594;2023-08-21T16:59:59;8.93;;;4.70;;
23171;SDS011;11754;42.664;23.594;2023-08-21T17:02:25;12.63;;;4.60;;
23171;SDS011;11754;42.664;23.594;2023-08-21T17:04:50;12.93;;;4.40;;